createdAt,value
2022-12-15T00:00:24.658Z,4.61
2022-12-15T00:03:31.975Z,4.79
2022-12-15T00:06:19.982Z,4.80
2022-12-15T00:09:09.817Z,4.67
2022-12-15T00:12:00.441Z,4.65
2022-12-15T00:14:47.015Z,4.62
2022-12-15T00:17:33.717Z,4.60
2022-12-15T00:20:20.185Z,4.64
2022-12-15T00:23:06.777Z,4.88
2022-12-15T00:25:53.502Z,5.04
2022-12-15T00:28:39.935Z,5.11
2022-12-15T00:31:26.584Z,5.21
2022-12-15T00:34:13.358Z,4.30
2022-12-15T00:36:59.849Z,2.26
2022-12-15T00:39:27.715Z,0.41
2022-12-15T00:41:55.531Z,-0.86
2022-12-15T00:44:24.193Z,-1.83
2022-12-15T00:46:54.832Z,-2.62
2022-12-15T00:49:48.149Z,-3.42
2022-12-15T00:52:37.195Z,-4.39
2022-12-15T00:55:24.745Z,-4.49
2022-12-15T00:58:12.831Z,-2.37
2022-12-15T01:00:59.916Z,-0.43
2022-12-15T01:03:46.780Z,0.65
2022-12-15T01:06:38.517Z,1.46
2022-12-15T01:09:29.832Z,2.21
2022-12-15T01:12:16.620Z,2.83
2022-12-15T01:15:03.117Z,3.53
2022-12-15T01:17:49.375Z,4.31
2022-12-15T01:20:20.145Z,4.70
2022-12-15T01:22:53.110Z,4.95
2022-12-15T01:25:24.919Z,5.19
2022-12-15T01:27:52.829Z,4.65
2022-12-15T01:30:25.019Z,2.79
2022-12-15T01:32:53.655Z,1.08
2022-12-15T01:35:22.705Z,-0.21
2022-12-15T01:37:50.538Z,-1.22
2022-12-15T01:40:39.652Z,-2.04
2022-12-15T01:43:25.185Z,-2.85
2022-12-15T01:45:55.640Z,-3.60
2022-12-15T01:48:34.282Z,-4.17
2022-12-15T01:51:25.996Z,-4.62
2022-12-15T01:54:05.203Z,-3.19
2022-12-15T01:56:39.411Z,-0.91
2022-12-15T01:59:15.106Z,0.38
2022-12-15T02:01:43.139Z,1.08
2022-12-15T02:04:12.235Z,1.83
2022-12-15T02:06:40.051Z,2.57
2022-12-15T02:09:08.660Z,3.26
2022-12-15T02:12:21.715Z,3.78
2022-12-15T02:15:07.748Z,4.14
2022-12-15T02:17:57.182Z,4.58
2022-12-15T02:20:53.142Z,4.85
2022-12-15T02:23:45.975Z,4.92
2022-12-15T02:26:47.301Z,4.82
2022-12-15T02:29:45.108Z,4.49
2022-12-15T02:32:25.824Z,4.26
2022-12-15T02:35:15.671Z,4.22
2022-12-15T02:37:45.667Z,4.00
2022-12-15T02:40:17.768Z,3.77
2022-12-15T02:42:52.002Z,3.70
2022-12-15T02:45:51.295Z,3.69
2022-12-15T02:48:38.061Z,3.49
2022-12-15T02:51:58.209Z,3.21
2022-12-15T02:55:00.950Z,3.19
2022-12-15T02:57:43.667Z,3.17
2022-12-15T03:00:13.620Z,3.24
2022-12-15T03:02:51.307Z,3.24
2022-12-15T03:05:21.452Z,3.12
2022-12-15T03:07:53.059Z,3.20
2022-12-15T03:10:25.267Z,3.23
2022-12-15T03:12:54.855Z,3.35
2022-12-15T03:15:22.922Z,3.57
2022-12-15T03:17:50.700Z,3.66
2022-12-15T03:20:18.496Z,3.73
2022-12-15T03:22:46.331Z,3.58
2022-12-15T03:25:14.233Z,3.44
2022-12-15T03:27:42.152Z,3.26
2022-12-15T03:30:10.790Z,3.12
2022-12-15T03:32:38.612Z,3.12
2022-12-15T03:35:07.500Z,3.13
2022-12-15T03:37:35.337Z,3.25
2022-12-15T03:40:03.493Z,3.30
2022-12-15T03:42:49.687Z,3.30
2022-12-15T03:45:24.352Z,3.26
2022-12-15T03:47:54.769Z,3.17
2022-12-15T03:50:26.975Z,2.94
2022-12-15T03:53:01.825Z,2.92
2022-12-15T03:55:30.158Z,3.09
2022-12-15T03:57:59.381Z,3.30
2022-12-15T04:00:27.652Z,3.50
2022-12-15T04:02:55.551Z,3.63
2022-12-15T04:05:33.584Z,3.88
2022-12-15T04:08:02.681Z,3.88
2022-12-15T04:10:34.935Z,3.68
2022-12-15T04:13:08.386Z,3.38
2022-12-15T04:15:38.972Z,3.20
2022-12-15T04:18:10.701Z,3.12
2022-12-15T04:20:40.680Z,3.07
2022-12-15T04:23:09.004Z,2.94
2022-12-15T04:25:56.659Z,2.79
2022-12-15T04:28:43.159Z,2.64
2022-12-15T04:31:46.094Z,2.61
2022-12-15T04:34:40.475Z,2.63
2022-12-15T04:37:32.165Z,2.52
2022-12-15T04:40:19.222Z,2.49
2022-12-15T04:43:07.246Z,2.51
2022-12-15T04:45:54.024Z,2.69
2022-12-15T04:48:40.719Z,3.03
2022-12-15T04:51:27.402Z,3.26
2022-12-15T04:54:13.848Z,3.38
2022-12-15T04:57:00.451Z,3.34
2022-12-15T04:59:47.371Z,3.21
2022-12-15T05:02:33.967Z,3.05
2022-12-15T05:05:20.596Z,3.02
2022-12-15T05:08:07.129Z,3.29
2022-12-15T05:10:53.631Z,3.45
2022-12-15T05:13:40.250Z,3.59
2022-12-15T05:16:27.051Z,3.77
2022-12-15T05:19:13.846Z,3.85
2022-12-15T05:22:00.363Z,3.97
2022-12-15T05:24:47.111Z,4.08
2022-12-15T05:27:33.885Z,4.20
2022-12-15T05:30:20.863Z,4.15
2022-12-15T05:32:49.876Z,4.01
2022-12-15T05:35:18.185Z,3.84
2022-12-15T05:37:46.004Z,3.69
2022-12-15T05:40:13.909Z,3.58
2022-12-15T05:42:41.723Z,3.48
2022-12-15T05:45:10.401Z,3.37
2022-12-15T05:47:38.197Z,3.23
2022-12-15T05:50:07.072Z,3.05
2022-12-15T05:52:34.870Z,2.88
2022-12-15T05:55:02.792Z,2.82
2022-12-15T05:57:30.651Z,2.81
2022-12-15T05:59:58.488Z,2.72
2022-12-15T06:02:29.224Z,2.71
2022-12-15T06:04:57.145Z,2.85
2022-12-15T06:07:25.116Z,3.02
2022-12-15T06:09:53.011Z,3.18
2022-12-15T06:12:20.785Z,3.31
2022-12-15T06:14:49.804Z,3.41
2022-12-15T06:17:18.778Z,3.88
2022-12-15T06:19:46.689Z,4.25
2022-12-15T06:22:14.633Z,4.23
2022-12-15T06:24:42.471Z,4.22
2022-12-15T06:27:10.285Z,4.06
2022-12-15T06:29:38.044Z,3.74
2022-12-15T06:32:05.913Z,3.63
2022-12-15T06:34:33.656Z,3.64
2022-12-15T06:37:01.427Z,3.70
2022-12-15T06:39:29.337Z,3.74
2022-12-15T06:41:57.138Z,3.82
2022-12-15T06:44:24.992Z,3.87
2022-12-15T06:46:52.925Z,3.96
2022-12-15T06:49:21.719Z,4.03
2022-12-15T06:51:50.719Z,4.03
2022-12-15T06:54:18.987Z,4.09
2022-12-15T06:56:46.789Z,4.15
2022-12-15T06:59:17.942Z,4.13
2022-12-15T07:01:46.001Z,4.02
2022-12-15T07:04:14.181Z,3.79
2022-12-15T07:06:42.523Z,3.59
2022-12-15T07:09:16.196Z,3.42
2022-12-15T07:11:45.250Z,3.26
2022-12-15T07:14:16.968Z,3.22
2022-12-15T07:16:48.469Z,3.43
2022-12-15T07:19:16.273Z,3.55
2022-12-15T07:21:44.104Z,3.48
2022-12-15T07:24:13.095Z,3.54
2022-12-15T07:26:42.767Z,3.70
2022-12-15T07:29:12.015Z,3.94
2022-12-15T07:31:40.052Z,4.20
2022-12-15T07:34:07.989Z,4.43
2022-12-15T07:36:35.867Z,4.67
2022-12-15T07:39:06.424Z,4.89
2022-12-15T07:41:35.563Z,5.06
2022-12-15T07:44:03.563Z,5.14
2022-12-15T07:46:31.488Z,4.01
2022-12-15T07:48:59.567Z,2.21
2022-12-15T07:51:27.916Z,0.73
2022-12-15T07:53:56.308Z,-0.49
2022-12-15T07:56:24.262Z,-1.46
2022-12-15T07:58:52.129Z,-2.20
2022-12-15T08:01:20.213Z,-2.77
2022-12-15T08:03:49.483Z,-3.27
2022-12-15T08:06:17.375Z,-3.75
2022-12-15T08:08:50.314Z,-4.12
2022-12-15T08:11:22.429Z,-4.40
2022-12-15T08:14:10.586Z,-4.59
2022-12-15T08:16:39.633Z,-3.90
2022-12-15T08:19:12.360Z,-0.98
2022-12-15T08:21:42.143Z,1.62
2022-12-15T08:24:10.474Z,3.22
2022-12-15T08:26:39.262Z,4.09
2022-12-15T08:31:59.764Z,5.24
2022-12-15T08:34:27.778Z,4.40
2022-12-15T08:36:55.935Z,2.92
2022-12-15T08:39:23.899Z,1.71
2022-12-15T08:41:51.716Z,0.66
2022-12-15T08:44:19.544Z,-0.30
2022-12-15T08:46:47.337Z,-1.10
2022-12-15T08:49:19.734Z,-1.74
2022-12-15T08:51:50.517Z,-2.34
2022-12-15T08:54:19.949Z,-2.86
2022-12-15T08:56:47.957Z,-3.30
2022-12-15T08:59:16.147Z,-3.63
2022-12-15T09:01:44.271Z,-3.88
2022-12-15T09:04:12.227Z,-4.07
2022-12-15T09:06:40.200Z,-4.19
2022-12-15T09:09:13.542Z,-4.26
2022-12-15T09:11:41.515Z,-4.28
2022-12-15T09:14:09.342Z,-4.30
2022-12-15T09:16:37.451Z,-4.31
2022-12-15T09:19:05.456Z,-4.34
2022-12-15T09:21:33.340Z,-4.36
2022-12-15T09:24:03.289Z,-4.33
2022-12-15T09:26:34.558Z,-4.28
2022-12-15T09:29:02.639Z,-4.15
2022-12-15T09:31:44.815Z,-3.97
2022-12-15T09:34:16.294Z,-3.82
2022-12-15T09:36:44.250Z,-3.68
2022-12-15T09:39:12.489Z,-3.49
2022-12-15T09:41:40.991Z,-3.11
2022-12-15T09:44:20.429Z,-2.61
2022-12-15T09:47:25.795Z,-2.09
2022-12-15T09:49:57.547Z,-1.76
2022-12-15T09:52:50.243Z,-1.63
2022-12-15T09:55:29.080Z,-1.53
2022-12-15T09:57:59.850Z,-1.37
2022-12-15T10:01:02.494Z,-1.16
2022-12-15T10:04:01.792Z,-0.94
2022-12-15T10:06:50.633Z,-0.69
2022-12-15T10:09:29.298Z,-0.55
2022-12-15T10:12:07.358Z,-0.53
2022-12-15T10:14:54.975Z,-0.50
2022-12-15T10:17:52.884Z,-0.43
2022-12-15T10:20:27.598Z,-0.36
2022-12-15T10:23:02.773Z,-0.32
2022-12-15T10:25:32.232Z,-0.36
2022-12-15T10:28:29.947Z,-0.18
2022-12-15T10:31:05.005Z,0.52
2022-12-15T10:33:40.213Z,1.12
2022-12-15T10:36:15.033Z,1.59
2022-12-15T10:38:50.523Z,1.78
2022-12-15T10:41:26.453Z,1.57
2022-12-15T10:43:55.028Z,1.20
2022-12-15T10:46:29.719Z,0.83
2022-12-15T10:49:24.422Z,0.55
2022-12-15T10:51:59.576Z,0.27
2022-12-15T10:54:35.768Z,0.03
2022-12-15T10:57:30.555Z,-0.20
2022-12-15T11:00:13.642Z,-0.14
2022-12-15T11:02:42.548Z,0.40
2022-12-15T11:05:16.471Z,1.00
2022-12-15T11:07:50.653Z,1.65
2022-12-15T11:10:27.729Z,2.20
2022-12-15T11:13:15.738Z,2.49
2022-12-15T11:15:53.294Z,2.62
2022-12-15T11:18:44.422Z,2.74
2022-12-15T11:21:17.118Z,2.97
2022-12-15T11:23:58.060Z,3.23
2022-12-15T11:26:44.570Z,3.35
2022-12-15T11:29:27.114Z,3.19
2022-12-15T11:31:58.919Z,2.91
2022-12-15T11:34:47.353Z,2.57
2022-12-15T11:37:54.585Z,2.01
2022-12-15T11:40:39.790Z,1.32
2022-12-15T11:43:54.480Z,0.80
2022-12-15T11:46:39.891Z,0.45
2022-12-15T11:49:26.439Z,0.25
2022-12-15T11:52:12.786Z,-0.03
2022-12-15T11:55:07.930Z,-0.27
2022-12-15T11:58:19.303Z,-0.45
2022-12-15T12:01:08.909Z,-0.56
2022-12-15T12:04:06.814Z,-0.64
2022-12-15T12:07:02.463Z,-0.71
2022-12-15T12:09:56.705Z,-0.69
2022-12-15T12:13:00.124Z,-0.41
2022-12-15T12:15:45.998Z,0.16
2022-12-15T12:18:27.384Z,0.43
2022-12-15T12:21:11.038Z,0.50
2022-12-15T12:23:43.786Z,0.52
2022-12-15T12:26:22.733Z,0.54
2022-12-15T12:29:02.601Z,0.52
2022-12-15T12:32:05.165Z,0.38
2022-12-15T12:35:34.090Z,0.26
2022-12-15T12:38:15.285Z,0.12
2022-12-15T12:41:10.555Z,-0.03
2022-12-15T12:44:33.598Z,-0.18
2022-12-15T12:47:29.823Z,-0.36
2022-12-15T12:50:05.393Z,-0.49
2022-12-15T12:52:37.905Z,-0.69
2022-12-15T12:55:27.042Z,-0.87
2022-12-15T12:57:56.144Z,-1.06
2022-12-15T13:00:31.139Z,-1.21
2022-12-15T13:03:21.153Z,-1.36
2022-12-15T13:05:50.952Z,-1.51
2022-12-15T13:08:29.368Z,-1.65
2022-12-15T13:11:17.117Z,-1.78
2022-12-15T13:13:51.228Z,-1.91
2022-12-15T13:16:27.657Z,-2.05
2022-12-15T13:18:58.001Z,-2.16
2022-12-15T13:21:41.710Z,-2.26
2022-12-15T13:24:35.630Z,-2.38
2022-12-15T13:27:15.833Z,-2.50
2022-12-15T13:30:15.199Z,-2.59
2022-12-15T13:32:53.315Z,-2.65
2022-12-15T13:35:32.235Z,-2.67
2022-12-15T13:38:03.261Z,-2.71
2022-12-15T13:40:37.956Z,-2.82
2022-12-15T13:43:05.630Z,-2.96
2022-12-15T13:45:52.363Z,-3.08
2022-12-15T13:48:39.083Z,-3.22
2022-12-15T13:51:24.211Z,-3.35
2022-12-15T13:54:21.882Z,-3.46
2022-12-15T13:57:03.725Z,-1.89
2022-12-15T13:59:42.225Z,0.85
2022-12-15T14:02:36.975Z,2.17
2022-12-15T14:05:23.029Z,1.17
2022-12-15T14:08:00.692Z,-0.38
2022-12-15T14:10:41.786Z,-1.45
2022-12-15T14:13:20.285Z,-2.24
2022-12-15T14:15:55.175Z,-2.82
2022-12-15T14:18:31.048Z,-3.27
2022-12-15T14:21:01.217Z,-3.62
2022-12-15T14:24:10.990Z,-3.90
2022-12-15T14:26:31.954Z,-3.19
2022-12-15T14:29:04.357Z,-1.40
2022-12-15T14:31:33.254Z,0.14
2022-12-15T14:34:12.764Z,0.73
2022-12-15T14:36:43.480Z,-0.15
2022-12-15T14:39:28.309Z,-1.28
2022-12-15T14:41:58.462Z,-2.19
2022-12-15T14:44:39.704Z,-2.85
2022-12-15T14:47:32.734Z,-3.46
2022-12-15T14:50:03.810Z,-4.00
2022-12-15T14:52:40.113Z,-4.42
2022-12-15T14:55:30.038Z,-4.62
2022-12-15T14:57:58.517Z,-3.21
2022-12-15T15:00:34.896Z,-1.71
2022-12-15T15:03:39.209Z,-0.66
2022-12-15T15:06:12.954Z,0.21
2022-12-15T15:08:49.392Z,0.44
2022-12-15T15:11:34.023Z,0.66
2022-12-15T15:14:12.704Z,1.09
2022-12-15T15:16:40.917Z,1.33
2022-12-15T15:19:22.521Z,1.23
2022-12-15T15:21:50.610Z,1.10
2022-12-15T15:24:29.506Z,1.16
2022-12-15T15:27:40.006Z,1.16
2022-12-15T15:30:23.323Z,1.45
2022-12-15T15:33:02.081Z,1.54
2022-12-15T15:35:33.726Z,1.60
2022-12-15T15:38:12.436Z,1.69
2022-12-15T15:40:40.165Z,1.76
2022-12-15T15:43:12.679Z,1.63
2022-12-15T15:45:42.024Z,1.73
2022-12-15T15:48:23.650Z,1.65
2022-12-15T15:50:51.675Z,1.72
2022-12-15T15:53:24.141Z,1.90
2022-12-15T15:55:55.700Z,1.85
2022-12-15T15:58:23.702Z,1.78
2022-12-15T16:00:51.695Z,1.82
2022-12-15T16:03:19.786Z,1.70
2022-12-15T16:05:47.797Z,1.76
2022-12-15T16:08:19.749Z,1.74
2022-12-15T16:10:49.815Z,1.81
2022-12-15T16:13:25.510Z,1.73
2022-12-15T16:15:55.014Z,1.74
2022-12-15T16:18:22.781Z,2.06
2022-12-15T16:20:52.673Z,2.33
2022-12-15T16:23:27.496Z,2.44
2022-12-15T16:26:00.305Z,2.48
2022-12-15T16:28:31.429Z,2.69
2022-12-15T16:30:59.956Z,2.73
2022-12-15T16:33:28.446Z,2.53
2022-12-15T16:35:57.770Z,2.41
2022-12-15T16:38:32.335Z,2.24
2022-12-15T16:41:07.380Z,1.99
2022-12-15T16:43:39.260Z,1.90
2022-12-15T16:46:12.915Z,1.76
2022-12-15T16:48:41.968Z,1.78
2022-12-15T16:51:39.502Z,1.78
2022-12-15T16:54:12.544Z,1.61
2022-12-15T16:56:40.297Z,1.40
2022-12-15T16:59:34.227Z,1.13
2022-12-15T17:02:29.724Z,0.87
2022-12-15T17:04:57.876Z,0.74
2022-12-15T17:07:28.219Z,0.84
2022-12-15T17:09:56.946Z,1.00
2022-12-15T17:12:24.928Z,1.16
2022-12-15T17:14:52.733Z,1.28
2022-12-15T17:17:20.629Z,1.24
2022-12-15T17:20:32.650Z,1.24
2022-12-15T17:22:38.436Z,1.17
2022-12-15T17:25:15.547Z,1.14
2022-12-15T17:27:43.793Z,1.17
2022-12-15T17:30:15.904Z,1.20
2022-12-15T17:32:44.713Z,1.24
2022-12-15T17:35:12.632Z,1.41
2022-12-15T17:37:41.018Z,1.54
2022-12-15T17:40:19.932Z,1.62
2022-12-15T17:42:49.606Z,1.81
2022-12-15T17:45:24.126Z,2.02
2022-12-15T17:47:52.231Z,2.12
2022-12-15T17:50:20.047Z,2.22
2022-12-15T17:52:48.823Z,2.37
2022-12-15T17:55:34.726Z,2.55
2022-12-15T17:58:14.485Z,2.82
2022-12-15T18:00:48.912Z,3.21
2022-12-15T18:03:17.813Z,3.62
2022-12-15T18:05:50.121Z,4.05
2022-12-15T18:08:22.693Z,4.42
2022-12-15T18:10:55.479Z,4.58
2022-12-15T18:13:33.309Z,4.76
2022-12-15T18:16:03.308Z,4.94
2022-12-15T18:18:31.108Z,4.94
2022-12-15T18:21:05.878Z,5.15
2022-12-15T18:23:34.489Z,4.88
2022-12-15T18:26:03.482Z,3.14
2022-12-15T18:28:36.034Z,1.26
2022-12-15T18:31:19.653Z,-0.34
2022-12-15T18:33:47.503Z,-1.56
2022-12-15T18:36:16.380Z,-2.40
2022-12-15T18:38:47.663Z,-3.06
2022-12-15T18:41:19.041Z,-3.61
2022-12-15T18:43:47.950Z,-4.03
2022-12-15T18:46:18.886Z,-4.37
2022-12-15T18:48:48.202Z,-4.64
2022-12-15T18:51:24.985Z,-3.76
2022-12-15T18:53:53.384Z,-1.78
2022-12-15T18:56:24.647Z,-1.00
2022-12-15T18:58:56.715Z,-0.31
2022-12-15T19:01:27.963Z,0.67
2022-12-15T19:03:59.740Z,0.98
2022-12-15T19:06:41.643Z,1.24
2022-12-15T19:09:23.411Z,1.61
2022-12-15T19:12:10.756Z,1.91
2022-12-15T19:14:46.656Z,2.30
2022-12-15T19:17:40.931Z,2.30
2022-12-15T19:20:39.829Z,2.39
2022-12-15T19:23:08.232Z,2.44
2022-12-15T19:25:37.658Z,2.45
2022-12-15T19:28:22.580Z,2.59
2022-12-15T19:30:52.409Z,2.58
2022-12-15T19:33:20.617Z,2.48
2022-12-15T19:35:52.068Z,2.54
2022-12-15T19:38:31.652Z,2.59
2022-12-15T19:41:00.544Z,2.63
2022-12-15T19:43:35.357Z,2.67
2022-12-15T19:46:03.985Z,2.62
2022-12-15T19:48:32.511Z,2.31
2022-12-15T19:51:00.533Z,2.31
2022-12-15T19:53:31.400Z,2.32
2022-12-15T19:56:01.706Z,2.38
2022-12-15T19:58:34.047Z,2.33
2022-12-15T20:01:10.016Z,2.22
2022-12-15T20:03:39.524Z,2.22
2022-12-15T20:06:21.941Z,2.12
2022-12-15T20:08:54.889Z,2.14
2022-12-15T20:11:34.527Z,2.14
2022-12-15T20:14:08.868Z,2.09
2022-12-15T20:16:36.849Z,1.96
2022-12-15T20:19:05.591Z,1.81
2022-12-15T20:21:38.787Z,1.80
2022-12-15T20:24:17.946Z,1.78
2022-12-15T20:26:46.973Z,1.93
2022-12-15T20:29:30.801Z,1.97
2022-12-15T20:31:59.592Z,2.09
2022-12-15T20:34:27.381Z,2.25
2022-12-15T20:36:55.133Z,2.42
2022-12-15T20:39:29.491Z,2.52
2022-12-15T20:41:58.231Z,2.70
2022-12-15T20:44:25.961Z,2.85
2022-12-15T20:46:54.627Z,2.90
2022-12-15T20:49:24.010Z,2.88
2022-12-15T20:51:51.910Z,2.86
2022-12-15T20:54:22.128Z,2.91
2022-12-15T20:56:50.930Z,2.84
2022-12-15T20:59:18.672Z,2.99
2022-12-15T21:01:47.128Z,2.96
2022-12-15T21:04:27.800Z,2.98
2022-12-15T21:06:56.727Z,3.05
2022-12-15T21:09:25.011Z,3.05
2022-12-15T21:11:55.160Z,3.08
2022-12-15T21:14:24.734Z,3.18
2022-12-15T21:16:52.920Z,3.54
2022-12-15T21:19:21.949Z,3.75
2022-12-15T21:21:55.211Z,3.92
2022-12-15T21:24:28.508Z,3.83
2022-12-15T21:26:56.440Z,3.62
2022-12-15T21:29:28.010Z,3.55
2022-12-15T21:31:55.774Z,3.67
2022-12-15T21:34:23.602Z,3.99
2022-12-15T21:36:54.922Z,3.98
2022-12-15T21:39:36.304Z,4.01
2022-12-15T21:42:16.161Z,4.08
2022-12-15T21:44:44.913Z,4.16
2022-12-15T21:47:49.863Z,4.34
2022-12-15T21:50:19.874Z,4.39
2022-12-15T21:52:48.319Z,4.52
2022-12-15T21:55:26.398Z,4.52
2022-12-15T21:57:55.652Z,4.72
2022-12-15T22:00:25.044Z,4.53
2022-12-15T22:02:54.106Z,4.70
2022-12-15T22:05:25.724Z,4.97
2022-12-15T22:07:53.452Z,5.15
2022-12-15T22:10:24.914Z,4.13
2022-12-15T22:12:59.338Z,2.37
2022-12-15T22:15:29.480Z,0.59
2022-12-15T22:17:57.256Z,-0.79
2022-12-15T22:20:25.589Z,-1.83
2022-12-15T22:22:53.307Z,-2.54
2022-12-15T22:25:25.690Z,-1.55
2022-12-15T22:27:54.989Z,0.67
2022-12-15T22:30:26.491Z,1.58
2022-12-15T22:32:54.692Z,0.32
2022-12-15T22:35:26.548Z,-0.99
2022-12-15T22:37:55.236Z,-2.00
2022-12-15T22:40:24.555Z,-2.70
2022-12-15T22:42:58.161Z,-2.32
2022-12-15T22:45:26.014Z,-0.30
2022-12-15T22:47:55.014Z,1.43
2022-12-15T22:50:26.364Z,1.62
2022-12-15T22:52:54.952Z,0.22
2022-12-15T22:55:24.873Z,-1.01
2022-12-15T22:58:06.524Z,-1.91
2022-12-15T23:00:34.374Z,-2.61
2022-12-15T23:03:02.547Z,-2.66
2022-12-15T23:05:30.716Z,-0.77
2022-12-15T23:07:59.180Z,1.28
2022-12-15T23:10:45.723Z,2.26
2022-12-15T23:13:13.474Z,1.30
2022-12-15T23:15:59.876Z,-0.18
2022-12-15T23:18:27.681Z,-1.33
2022-12-15T23:20:55.768Z,-2.11
2022-12-15T23:23:23.808Z,-2.68
2022-12-15T23:25:52.588Z,-2.33
2022-12-15T23:28:22.313Z,-0.36
2022-12-15T23:30:55.798Z,1.30
2022-12-15T23:33:25.137Z,2.50
2022-12-15T23:35:55.443Z,1.96
2022-12-15T23:38:24.508Z,0.47
2022-12-15T23:40:55.050Z,-0.86
2022-12-15T23:43:25.764Z,-1.83
2022-12-15T23:46:03.623Z,-2.54
2022-12-15T23:48:36.683Z,-2.74
2022-12-15T23:51:13.783Z,-0.88
2022-12-15T23:53:44.046Z,1.01
2022-12-15T23:56:17.506Z,1.87
2022-12-15T23:58:47.648Z,1.12
